Time,TemperatureF,DewpointF,PressureIn,WindDirection,WindDirectionDegrees,WindSpeedMPH,WindSpeedGustMPH,Humidity,HourlyPrecipIn,Conditions,Clouds,dailyrainin,SolarRadiationWatts/m^2,SoftwareType,DateUTC
2013-10-05 00:14:00,31.0,24.9,30.82,ESE,109,0.0,1.0,78,0.00,CLR,SKC,0.00,0.0,WeatherDisplay:10.37,2013-10-05 06:14:00,
2013-10-05 00:44:00,30.0,24.6,30.83,ESE,109,0.0,0.0,80,0.00,CLR,SKC,0.00,0.0,WeatherDisplay:10.37,2013-10-05 06:44:00,
2013-10-05 01:14:00,30.1,24.7,30.82,ESE,109,0.0,1.0,80,0.00,CLR,SKC,0.00,0.0,WeatherDisplay:10.37,2013-10-05 07:14:00,
2013-10-05 01:44:00,29.8,24.1,30.83,ESE,109,0.0,1.0,79,0.00,CLR,SKC,0.00,0.0,WeatherDisplay:10.37,2013-10-05 07:44:00,
2013-10-05 02:14:00,28.5,23.4,30.85,ESE,109,0.0,0.0,81,0.00,CLR,SKC,0.00,0.0,WeatherDisplay:10.37,2013-10-05 08:14:00,
2013-10-05 02:44:00,27.5,23.3,30.86,ESE,109,0.0,0.0,84,0.00,CLR,SKC,0.00,0.0,WeatherDisplay:10.37,2013-10-05 08:44:00,
2013-10-05 03:14:00,28.6,24.1,30.85,SE,140,0.0,1.0,83,0.00,CLR,SKC,0.00,0.0,WeatherDisplay:10.37,2013-10-05 09:14:00,
2013-10-05 03:44:00,27.8,22.4,30.86,SE,140,0.0,1.0,80,0.00,CLR,SKC,0.00,0.0,WeatherDisplay:10.37,2013-10-05 09:44:00,
2013-10-05 04:14:00,27.2,22.1,30.86,SE,140,0.0,0.0,81,0.00,CLR,SKC,0.00,0.0,WeatherDisplay:10.37,2013-10-05 10:14:00,
2013-10-05 04:44:00,26.4,21.9,30.87,SE,140,1.0,2.0,83,0.00,CLR,SKC,0.00,0.0,WeatherDisplay:10.37,2013-10-05 10:44:00,
2013-10-05 05:14:00,26.4,22.2,30.88,SE,140,0.0,0.0,84,0.00,CLR,SKC,0.00,0.0,WeatherDisplay:10.37,2013-10-05 11:14:00,
2013-10-05 05:44:00,25.8,21.3,30.89,SE,140,0.0,1.0,83,0.00,CLR,SKC,0.00,0.0,WeatherDisplay:10.37,2013-10-05 11:44:00,
2013-10-05 06:14:00,25.1,20.9,30.89,SE,140,0.0,0.0,84,0.00,CLR,SKC,0.00,0.0,WeatherDisplay:10.37,2013-10-05 12:14:00,
2013-10-05 06:44:00,25.0,20.8,30.89,SE,140,0.0,0.0,84,0.00,CLR,SKC,0.00,0.0,WeatherDisplay:10.37,2013-10-05 12:44:00,
2013-10-05 07:14:00,24.8,20.9,30.91,SE,140,0.0,2.0,85,0.00,OVC,SKC,0.00,0.0,WeatherDisplay:10.37,2013-10-05 13:14:00,
2013-10-05 07:44:00,24.7,20.8,30.92,SE,140,0.0,2.0,85,0.00,BKN,SKC,0.00,12.0,WeatherDisplay:10.37,2013-10-05 13:44:00,
2013-10-05 08:14:00,25.5,21.9,30.94,NE,35,0.0,0.0,86,0.00,SCT,SKC,0.00,67.0,WeatherDisplay:10.37,2013-10-05 14:14:00,
2013-10-05 08:44:00,31.6,25.6,30.94,NNE,15,0.0,0.0,78,0.00,CLR,SKC,0.00,227.0,WeatherDisplay:10.37,2013-10-05 14:44:00,
2013-10-05 09:14:00,31.4,25.9,30.96,NW,321,0.0,3.0,80,0.00,CLR,SKC,0.00,306.0,WeatherDisplay:10.37,2013-10-05 15:14:00,
2013-10-05 09:44:00,35.2,27.8,30.95,NW,321,0.0,1.0,74,0.00,CLR,SKC,0.00,399.0,WeatherDisplay:10.37,2013-10-05 15:44:00,
2013-10-05 10:14:00,36.4,26.8,30.95,WNW,283,2.0,5.0,68,0.00,CLR,SKC,0.00,487.0,WeatherDisplay:10.37,2013-10-05 16:14:00,
2013-10-05 10:44:00,38.0,27.3,30.95,WNW,286,3.0,8.0,65,0.00,CLR,SKC,0.00,564.0,WeatherDisplay:10.37,2013-10-05 16:44:00,
2013-10-05 11:14:00,42.1,28.0,30.96,WSW,257,2.0,4.0,57,0.00,CLR,SKC,0.00,633.0,WeatherDisplay:10.37,2013-10-05 17:14:00,
2013-10-05 11:44:00,44.3,27.8,30.95,SSE,158,2.0,5.0,52,0.00,CLR,SKC,0.00,689.0,WeatherDisplay:10.37,2013-10-05 17:44:00,
2013-10-05 12:14:00,45.4,27.4,30.94,ESE,109,2.0,4.0,49,0.00,CLR,SKC,0.00,726.0,WeatherDisplay:10.37,2013-10-05 18:14:00,
2013-10-05 12:44:00,46.8,26.6,30.94,NW,304,3.0,6.0,45,0.00,CLR,SKC,0.00,744.0,WeatherDisplay:10.37,2013-10-05 18:44:00,
2013-10-05 13:14:00,48.5,24.7,30.92,WNW,290,1.0,4.0,39,0.00,CLR,SKC,0.00,754.0,WeatherDisplay:10.37,2013-10-05 19:14:00,
2013-10-05 13:44:00,48.8,24.9,30.90,ENE,78,0.0,3.0,39,0.00,CLR,SKC,0.00,745.0,WeatherDisplay:10.37,2013-10-05 19:44:00,
2013-10-05 14:14:00,50.6,25.9,30.88,NW,312,2.0,9.0,38,0.00,CLR,SKC,0.00,719.0,WeatherDisplay:10.37,2013-10-05 20:14:00,
2013-10-05 14:44:00,51.9,25.8,30.87,WNW,289,0.0,5.0,36,0.00,CLR,SKC,0.00,684.0,WeatherDisplay:10.37,2013-10-05 20:44:00,
2013-10-05 15:14:00,52.2,25.3,30.86,WNW,294,2.0,4.0,35,0.00,CLR,SKC,0.00,619.0,WeatherDisplay:10.37,2013-10-05 21:14:00,
2013-10-05 15:44:00,52.9,25.9,30.85,North,349,0.0,4.0,35,0.00,CLR,SKC,0.00,547.0,WeatherDisplay:10.37,2013-10-05 21:44:00,
2013-10-05 16:14:00,54.5,28.1,30.84,West,276,1.0,5.0,36,0.00,CLR,SKC,0.00,473.0,WeatherDisplay:10.37,2013-10-05 22:14:00,
2013-10-05 16:44:00,54.2,25.7,30.83,West,269,2.0,5.0,33,0.00,CLR,SKC,0.00,385.0,WeatherDisplay:10.37,2013-10-05 22:44:00,
2013-10-05 17:14:00,54.2,27.1,30.83,South,188,0.0,2.0,35,0.00,CLR,SKC,0.00,281.0,WeatherDisplay:10.37,2013-10-05 23:14:00,
2013-10-05 17:44:00,54.2,24.2,30.83,West,277,3.0,6.0,31,0.00,CLR,SKC,0.00,169.0,WeatherDisplay:10.37,2013-10-05 23:44:00,
2013-10-05 18:14:00,53.8,24.6,30.83,West,279,1.0,4.0,32,0.00,FEW,SKC,0.00,72.0,WeatherDisplay:10.37,2013-10-06 00:14:00,
2013-10-05 18:44:00,50.9,22.7,30.83,West,266,0.0,2.0,33,0.00,SCT,SKC,0.00,14.0,WeatherDisplay:10.37,2013-10-06 00:44:00,
2013-10-05 19:14:00,48.1,21.0,30.84,West,277,0.0,0.0,34,0.00,OVC,SKC,0.00,0.0,WeatherDisplay:10.37,2013-10-06 01:14:00,
2013-10-05 19:44:00,44.4,22.7,30.86,ESE,111,1.0,3.0,42,0.00,CLR,SKC,0.00,0.0,WeatherDisplay:10.37,2013-10-06 01:44:00,
2013-10-05 20:14:00,41.3,24.0,30.87,ESE,115,0.0,3.0,50,0.00,CLR,SKC,0.00,0.0,WeatherDisplay:10.37,2013-10-06 02:14:00,
2013-10-05 20:44:00,41.0,23.7,30.87,East,96,3.0,6.0,50,0.00,CLR,SKC,0.00,0.0,WeatherDisplay:10.37,2013-10-06 02:44:00,
2013-10-05 21:14:00,40.8,23.1,30.88,ESE,106,0.0,1.0,49,0.00,CLR,SKC,0.00,0.0,WeatherDisplay:10.37,2013-10-06 03:14:00,
2013-10-05 21:44:00,38.2,23.8,30.89,ESE,106,0.0,0.0,56,0.00,CLR,SKC,0.00,0.0,WeatherDisplay:10.37,2013-10-06 03:44:00,
2013-10-05 22:14:00,37.3,23.1,30.88,ESE,106,0.0,2.0,56,0.00,CLR,SKC,0.00,0.0,WeatherDisplay:10.37,2013-10-06 04:14:00,
2013-10-05 22:44:00,37.5,21.9,30.89,ESE,106,1.0,2.0,53,0.00,CLR,SKC,0.00,0.0,WeatherDisplay:10.37,2013-10-06 04:44:00,
2013-10-05 23:14:00,36.6,22.8,30.89,ESE,106,1.0,2.0,57,0.00,CLR,SKC,0.00,0.0,WeatherDisplay:10.37,2013-10-06 05:14:00,
2013-10-05 23:44:00,35.6,22.7,30.89,ESE,106,0.0,0.0,59,0.00,CLR,SKC,0.00,0.0,WeatherDisplay:10.37,2013-10-06 05:44:00,